createdAt,value
2019-04-01T00:00:35.208Z,28.64
2019-04-01T00:01:35.195Z,28.53
2019-04-01T00:02:35.196Z,27.33
2019-04-01T00:03:35.178Z,28.23
2019-04-01T00:04:35.201Z,27.64
2019-04-01T00:05:35.163Z,27.33
2019-04-01T00:06:35.167Z,27.53
2019-04-01T00:07:35.144Z,27.53
2019-04-01T00:08:35.117Z,27.53
2019-04-01T00:09:35.127Z,27.53
2019-04-01T00:10:35.121Z,27.53
2019-04-01T00:11:35.133Z,27.53
2019-04-01T00:12:35.080Z,27.94
2019-04-01T00:13:35.063Z,27.94
2019-04-01T00:14:35.068Z,27.94
2019-04-01T00:15:35.053Z,27.53
2019-04-01T00:16:35.034Z,28.23
2019-04-01T00:17:35.023Z,27.53
2019-04-01T00:18:35.005Z,27.53
2019-04-01T00:19:35.011Z,28.03
2019-04-01T00:20:34.985Z,27.53
2019-04-01T00:21:34.970Z,27.44
2019-04-01T00:22:34.989Z,27.73
2019-04-01T00:23:34.957Z,28.23
2019-04-01T00:24:34.951Z,27.64
2019-04-01T00:25:34.952Z,27.53
2019-04-01T00:26:34.917Z,27.64
2019-04-01T00:27:34.902Z,27.64
2019-04-01T00:28:34.894Z,27.73
2019-04-01T00:29:34.881Z,27.64
2019-04-01T00:30:34.889Z,27.53
2019-04-01T00:31:34.865Z,27.64
2019-04-01T00:32:34.846Z,27.94
2019-04-01T00:33:34.840Z,27.83
2019-04-01T00:34:34.824Z,27.85
2019-04-01T00:35:34.825Z,27.94
2019-04-01T00:36:34.816Z,27.44
2019-04-01T00:37:34.805Z,27.53
2019-04-01T00:38:34.798Z,27.33
2019-04-01T00:39:34.770Z,27.14
2019-04-01T00:40:34.765Z,27.33
2019-04-01T00:41:34.747Z,27.25
2019-04-01T00:42:34.736Z,27.25
2019-04-01T00:43:34.723Z,27.35
2019-04-01T00:44:34.718Z,27.25
2019-04-01T00:45:34.713Z,27.55
2019-04-01T00:46:34.703Z,26.84
2019-04-01T00:47:34.766Z,27.35
2019-04-01T00:48:34.699Z,27.45
2019-04-01T00:49:34.656Z,27.04
2019-04-01T00:50:34.671Z,27.04
2019-04-01T00:51:34.635Z,27.04
2019-04-01T00:52:34.624Z,27.25
2019-04-01T00:53:34.618Z,27.45
2019-04-01T00:54:34.604Z,27.35
2019-04-01T00:55:34.606Z,27.15
2019-04-01T00:56:34.582Z,27.15
2019-04-01T00:57:34.576Z,27.55
2019-04-01T00:58:34.554Z,27.35
2019-04-01T00:59:34.549Z,27.25
2019-04-01T01:00:34.548Z,27.35
2019-04-01T01:01:34.529Z,27.35
2019-04-01T01:02:34.511Z,27.35
2019-04-01T01:03:34.505Z,26.95
2019-04-01T01:04:34.496Z,27.04
2019-04-01T01:05:34.510Z,27.15
2019-04-01T01:06:34.471Z,26.75
2019-04-01T01:07:34.459Z,27.35
2019-04-01T01:08:34.459Z,26.84
2019-04-01T01:09:34.440Z,27.35
2019-04-01T01:10:34.451Z,27.35
2019-04-01T01:11:34.422Z,27.15
2019-04-01T01:12:34.397Z,26.95
2019-04-01T01:13:34.392Z,27.45
2019-04-01T01:14:34.411Z,27.35
2019-04-01T01:15:34.382Z,27.15
2019-04-01T01:16:34.359Z,27.35
2019-04-01T01:17:34.340Z,27.15
2019-04-01T01:18:34.341Z,27.25
2019-04-01T01:19:34.325Z,26.34
2019-04-01T01:20:34.316Z,27.25
2019-04-01T01:21:34.319Z,27.04
2019-04-01T01:22:34.287Z,26.84
2019-04-01T01:23:34.274Z,26.54
2019-04-01T01:24:34.264Z,26.73
2019-04-01T01:25:34.253Z,26.84
2019-04-01T01:26:34.252Z,26.54
2019-04-01T01:27:34.245Z,26.84
2019-04-01T01:28:34.225Z,26.54
2019-04-01T01:29:34.226Z,26.45
2019-04-01T01:30:34.203Z,26.84
2019-04-01T01:31:34.203Z,26.75
2019-04-01T01:32:34.181Z,26.95
2019-04-01T01:33:34.182Z,26.75
2019-04-01T01:34:34.151Z,26.84
2019-04-01T01:35:34.143Z,26.84
2019-04-01T01:36:34.149Z,26.65
2019-04-01T01:37:34.134Z,26.34
2019-04-01T01:38:34.118Z,26.84
2019-04-01T01:39:34.107Z,26.65
2019-04-01T01:40:34.089Z,26.95
2019-04-01T01:41:34.098Z,26.75
2019-04-01T01:42:34.059Z,26.84
2019-04-01T01:43:34.061Z,27.04
2019-04-01T01:44:34.039Z,26.84
2019-04-01T01:45:34.027Z,26.84
2019-04-01T01:46:34.037Z,26.95
2019-04-01T01:47:34.023Z,26.54
2019-04-01T01:48:33.999Z,26.75
2019-04-01T01:49:33.998Z,26.84
2019-04-01T01:50:33.978Z,26.95
2019-04-01T01:51:33.986Z,26.84
2019-04-01T01:52:33.957Z,26.84
2019-04-01T01:53:33.955Z,26.84
2019-04-01T01:54:33.937Z,26.84
2019-04-01T01:55:33.927Z,26.75
2019-04-01T01:56:33.935Z,26.45
2019-04-01T01:57:33.890Z,26.75
2019-04-01T01:58:33.892Z,26.84
2019-04-01T01:59:33.901Z,26.84
2019-04-01T02:00:33.879Z,27.04
2019-04-01T02:01:33.860Z,27.04
2019-04-01T02:02:33.835Z,26.86
2019-04-01T02:03:33.831Z,26.76
2019-04-01T02:04:33.820Z,26.65
2019-04-01T02:05:33.818Z,26.86
2019-04-01T02:06:33.801Z,26.46
2019-04-01T02:07:33.787Z,26.76
2019-04-01T02:08:33.782Z,26.86
2019-04-01T02:09:33.762Z,26.65
2019-04-01T02:10:33.764Z,26.86
2019-04-01T02:11:33.751Z,26.84
2019-04-01T02:12:33.737Z,26.75
2019-04-01T02:13:33.724Z,26.75
2019-04-01T02:14:33.767Z,26.96
2019-04-01T02:15:33.693Z,26.86
2019-04-01T02:16:33.707Z,26.76
2019-04-01T02:17:33.692Z,26.76
2019-04-01T02:18:33.664Z,26.84
2019-04-01T02:19:33.655Z,26.84
2019-04-01T02:20:33.649Z,26.86
2019-04-01T02:21:33.625Z,26.56
2019-04-01T02:22:33.621Z,26.86
2019-04-01T02:23:33.608Z,27.06
2019-04-01T02:24:33.596Z,27.06
2019-04-01T02:25:33.575Z,26.76
2019-04-01T02:26:33.569Z,26.86
2019-04-01T02:27:33.559Z,26.86
2019-04-01T02:28:33.542Z,26.86
2019-04-01T02:29:33.535Z,26.86
2019-04-01T02:30:33.520Z,26.76
2019-04-01T02:31:33.511Z,26.96
2019-04-01T02:32:33.598Z,27.16
2019-04-01T02:33:33.494Z,26.86
2019-04-01T02:34:33.493Z,26.86
2019-04-01T02:35:33.466Z,26.86
2019-04-01T02:36:33.468Z,26.96
2019-04-01T02:37:33.463Z,26.86
2019-04-01T02:38:33.439Z,26.76
2019-04-01T02:39:33.429Z,26.66
2019-04-01T02:40:33.425Z,27.06
2019-04-01T02:41:33.403Z,26.66
2019-04-01T02:42:33.409Z,26.76
2019-04-01T02:43:33.386Z,26.86
2019-04-01T02:44:33.363Z,26.66
2019-04-01T02:45:33.366Z,26.86
2019-04-01T02:46:33.376Z,26.76
2019-04-01T02:47:33.453Z,26.66
2019-04-01T02:48:33.348Z,26.56
2019-04-01T02:49:33.319Z,27.06
2019-04-01T02:50:33.301Z,27.16
2019-04-01T02:51:33.293Z,26.75
2019-04-01T02:52:33.300Z,27.06
2019-04-01T02:53:33.270Z,26.86
2019-04-01T02:54:33.259Z,26.86
2019-04-01T02:55:33.265Z,26.96
2019-04-01T02:56:33.238Z,26.76
2019-04-01T02:57:33.239Z,27.16
2019-04-01T02:58:33.208Z,26.76
2019-04-01T02:59:33.206Z,26.87
2019-04-01T03:00:33.205Z,26.96
2019-04-01T03:01:33.181Z,26.66
2019-04-01T03:02:33.178Z,26.86
2019-04-01T03:03:33.168Z,26.76
2019-04-01T03:04:33.142Z,26.76
2019-04-01T03:05:33.146Z,26.76
2019-04-01T03:06:33.128Z,26.56
2019-04-01T03:07:33.131Z,26.76
2019-04-01T03:08:33.112Z,26.66
2019-04-01T03:09:33.083Z,27.08
2019-04-01T03:10:33.084Z,27.06
2019-04-01T03:11:33.080Z,26.76
2019-04-01T03:12:33.077Z,26.86
2019-04-01T03:13:33.045Z,27.06
2019-04-01T03:14:33.030Z,26.86
2019-04-01T03:15:33.019Z,26.96
2019-04-01T03:16:33.003Z,27.06
2019-04-01T03:17:33.001Z,26.76
2019-04-01T03:18:33.021Z,26.76
2019-04-01T03:19:32.991Z,26.86
2019-04-01T03:20:32.967Z,26.76
2019-04-01T03:21:32.967Z,27.06
2019-04-01T03:22:32.943Z,26.66
2019-04-01T03:23:32.946Z,26.86
2019-04-01T03:24:32.964Z,27.06
2019-04-01T03:25:32.911Z,26.96
2019-04-01T03:26:32.920Z,27.06
2019-04-01T03:27:32.903Z,26.66
2019-04-01T03:28:32.882Z,26.76
2019-04-01T03:29:32.869Z,26.86
2019-04-01T03:30:32.871Z,26.67
2019-04-01T03:31:32.838Z,27.06
2019-04-01T03:32:32.847Z,26.76
2019-04-01T03:33:32.830Z,26.66
2019-04-01T03:34:32.827Z,27.06
2019-04-01T03:35:32.792Z,26.96
2019-04-01T03:36:32.789Z,27.16
2019-04-01T03:37:32.790Z,26.66
2019-04-01T03:38:32.786Z,26.66
2019-04-01T03:39:32.755Z,27.17
2019-04-01T03:40:32.734Z,26.96
2019-04-01T03:41:32.722Z,27.06
2019-04-01T03:42:32.733Z,26.66
2019-04-01T03:43:32.707Z,26.76
2019-04-01T03:44:32.691Z,26.56
2019-04-01T03:45:32.677Z,26.66
2019-04-01T03:46:32.669Z,26.56
2019-04-01T03:47:32.671Z,27.06
2019-04-01T03:48:32.684Z,26.86
2019-04-01T03:49:32.659Z,26.96
2019-04-01T03:50:32.623Z,26.66
2019-04-01T03:51:32.609Z,26.96
2019-04-01T03:52:32.597Z,26.97
2019-04-01T03:53:32.598Z,26.66
2019-04-01T03:54:32.576Z,27.17
2019-04-01T03:55:32.614Z,26.77
2019-04-01T03:56:32.555Z,26.76
2019-04-01T03:57:32.551Z,26.56
2019-04-01T03:58:32.549Z,26.35
2019-04-01T03:59:32.527Z,26.56
2019-04-01T04:00:32.509Z,26.46
2019-04-01T04:01:32.502Z,26.86
2019-04-01T04:02:32.517Z,26.76
2019-04-01T04:03:32.497Z,26.96
2019-04-01T04:04:32.472Z,26.96
2019-04-01T04:05:32.466Z,26.96
2019-04-01T04:06:32.472Z,26.56
2019-04-01T04:07:32.452Z,26.86
2019-04-01T04:08:32.425Z,26.76
2019-04-01T04:09:32.448Z,27.06
2019-04-01T04:10:32.413Z,26.96
2019-04-01T04:11:32.384Z,27.06
2019-04-01T04:12:32.373Z,27.16
2019-04-01T04:13:32.393Z,27.06
2019-04-01T04:14:32.374Z,27.08
2019-04-01T04:15:32.471Z,27.06
2019-04-01T04:16:32.356Z,26.46
2019-04-01T04:17:32.324Z,27.06
2019-04-01T04:18:32.318Z,27.06
2019-04-01T04:19:32.328Z,27.06
2019-04-01T04:20:32.284Z,26.96
2019-04-01T04:21:32.277Z,26.96
2019-04-01T04:22:32.277Z,26.96
2019-04-01T04:23:32.261Z,26.86
2019-04-01T04:24:32.244Z,27.08
2019-04-01T04:25:32.236Z,26.86
2019-04-01T04:26:32.235Z,26.56
2019-04-01T04:27:32.225Z,26.06
2019-04-01T04:28:32.216Z,26.66
2019-04-01T04:29:32.200Z,26.96
2019-04-01T04:30:32.186Z,26.66
2019-04-01T04:31:32.186Z,26.57
2019-04-01T04:32:32.160Z,26.06
2019-04-01T04:33:32.149Z,25.96
2019-04-01T04:34:32.142Z,26.56
2019-04-01T04:35:32.164Z,26.46
2019-04-01T04:36:32.153Z,26.35
2019-04-01T04:37:32.092Z,26.26
2019-04-01T04:38:32.087Z,26.06
2019-04-01T04:39:32.086Z,26.17
2019-04-01T04:40:32.066Z,25.96
2019-04-01T04:41:32.065Z,26.56
2019-04-01T04:42:32.041Z,27.16
2019-04-01T04:43:32.033Z,26.77
2019-04-01T04:44:32.038Z,26.96
2019-04-01T04:45:32.004Z,26.86
2019-04-01T04:46:31.996Z,27.08
2019-04-01T04:47:32.005Z,26.87
2019-04-01T04:48:31.985Z,26.77
2019-04-01T04:49:32.009Z,26.67
2019-04-01T04:50:31.947Z,27.08
2019-04-01T04:51:31.936Z,26.87
2019-04-01T04:52:31.924Z,26.87
2019-04-01T04:53:31.917Z,26.87
2019-04-01T04:54:31.914Z,26.87
2019-04-01T04:55:31.920Z,26.77
2019-04-01T04:56:31.892Z,27.08
2019-04-01T04:57:31.874Z,26.57
2019-04-01T04:58:31.879Z,26.97
2019-04-01T04:59:31.850Z,26.87
2019-04-01T05:00:31.839Z,26.87
2019-04-01T05:01:31.839Z,26.87
2019-04-01T05:02:31.823Z,26.97
2019-04-01T05:03:31.808Z,26.97
2019-04-01T05:04:31.827Z,26.77
2019-04-01T05:05:31.791Z,26.87
2019-04-01T05:06:31.785Z,26.77
2019-04-01T05:07:31.766Z,26.87
2019-04-01T05:08:31.757Z,26.87
2019-04-01T05:09:31.775Z,26.77
2019-04-01T05:10:31.739Z,26.87
2019-04-01T05:11:31.712Z,26.77
2019-04-01T05:12:31.754Z,26.87
2019-04-01T05:13:31.694Z,26.57
2019-04-01T05:14:31.678Z,26.27
2019-04-01T05:15:31.688Z,26.57
2019-04-01T05:16:31.668Z,26.47
2019-04-01T05:17:31.649Z,26.47
2019-04-01T05:18:31.661Z,26.37
2019-04-01T05:19:31.633Z,26.87
2019-04-01T05:20:31.628Z,26.37
2019-04-01T05:21:31.650Z,26.77
2019-04-01T05:22:31.588Z,26.27
2019-04-01T05:23:31.604Z,26.87
2019-04-01T05:24:31.570Z,26.76
2019-04-01T05:25:31.991Z,26.76
2019-04-01T05:26:31.555Z,26.87
2019-04-01T05:27:31.537Z,26.56
2019-04-01T05:28:31.522Z,26.56
2019-04-01T05:29:31.536Z,26.66
2019-04-01T05:30:31.503Z,26.66
2019-04-01T05:31:31.487Z,26.66
2019-04-01T05:32:31.476Z,26.56
2019-04-01T05:33:31.490Z,26.56
2019-04-01T05:34:31.455Z,26.76
2019-04-01T05:35:31.480Z,26.76
2019-04-01T05:36:31.557Z,26.76
2019-04-01T05:37:31.441Z,26.86
2019-04-01T05:38:31.408Z,26.86
2019-04-01T05:39:31.409Z,26.86
2019-04-01T05:40:31.417Z,27.08
2019-04-01T05:41:31.388Z,27.06
2019-04-01T05:42:31.363Z,26.86
2019-04-01T05:43:31.376Z,26.86
2019-04-01T05:44:31.346Z,26.86
2019-04-01T05:45:31.343Z,26.96
2019-04-01T05:46:31.327Z,27.06
2019-04-01T05:47:31.313Z,27.06
2019-04-01T05:48:31.311Z,27.06
2019-04-01T05:49:31.301Z,26.86
2019-04-01T05:50:31.308Z,27.06
2019-04-01T05:51:31.263Z,26.86
2019-04-01T05:52:31.265Z,26.95
2019-04-01T05:53:31.273Z,26.66
2019-04-01T05:54:31.235Z,26.66
2019-04-01T05:55:31.233Z,26.54
2019-04-01T05:56:31.207Z,26.96
2019-04-01T05:57:31.202Z,26.96
2019-04-01T05:58:31.190Z,27.06
2019-04-01T05:59:31.277Z,26.96
2019-04-01T06:00:31.174Z,26.76
2019-04-01T06:01:31.165Z,26.76
2019-04-01T06:02:31.167Z,26.54
2019-04-01T06:03:31.148Z,26.66
2019-04-01T06:04:31.117Z,26.54
2019-04-01T06:05:31.134Z,26.86
2019-04-01T06:06:31.113Z,26.35
2019-04-01T06:07:31.171Z,26.56
2019-04-01T06:08:31.146Z,27.16
2019-04-01T06:09:31.123Z,26.95
2019-04-01T06:10:31.216Z,26.95
2019-04-01T06:11:32.038Z,26.96
2019-04-01T06:12:31.069Z,27.35
2019-04-01T06:13:31.099Z,27.85
2019-04-01T06:14:31.077Z,27.85
2019-04-01T06:15:31.093Z,27.95
2019-04-01T06:16:31.072Z,27.35
2019-04-01T06:17:31.078Z,27.55
2019-04-01T06:18:31.058Z,27.65
2019-04-01T06:19:30.949Z,27.65
2019-04-01T06:20:30.959Z,27.55
2019-04-01T06:21:30.955Z,27.44
2019-04-01T06:22:30.923Z,27.55
2019-04-01T06:23:30.911Z,27.95
2019-04-01T06:24:30.925Z,27.75
2019-04-01T06:25:30.882Z,28.05
2019-04-01T06:26:30.892Z,27.75
2019-04-01T06:27:31.259Z,27.75
2019-04-01T06:28:30.846Z,28.15
2019-04-01T06:29:30.846Z,27.55
2019-04-01T06:30:30.849Z,27.55
2019-04-01T06:31:30.822Z,27.55
2019-04-01T06:32:30.802Z,27.55
2019-04-01T06:33:30.790Z,28.05
2019-04-01T06:34:30.781Z,27.55
2019-04-01T06:35:30.771Z,27.53
2019-04-01T06:36:30.790Z,27.53
2019-04-01T06:37:30.756Z,27.53
2019-04-01T06:38:30.754Z,27.55
2019-04-01T06:39:30.723Z,27.14
2019-04-01T06:40:30.719Z,27.85
2019-04-01T06:41:30.712Z,28.03
2019-04-01T06:42:30.715Z,27.73
2019-04-01T06:43:30.682Z,27.85
2019-04-01T06:44:30.668Z,27.73
2019-04-01T06:45:30.678Z,27.44
2019-04-01T06:46:30.654Z,27.53
2019-04-01T06:47:30.634Z,27.44
2019-04-01T06:48:30.641Z,27.83
2019-04-01T06:49:30.612Z,27.44
2019-04-01T06:50:30.619Z,27.73
2019-04-01T06:51:30.621Z,27.23
2019-04-01T06:52:30.581Z,27.14
2019-04-01T06:53:30.571Z,27.12
2019-04-01T06:54:30.556Z,27.82
2019-04-01T06:55:30.545Z,27.94
2019-04-01T06:56:30.542Z,27.14
2019-04-01T06:57:30.547Z,27.14
2019-04-01T06:58:30.520Z,27.92
2019-04-01T06:59:30.508Z,27.92
2019-04-01T07:00:30.493Z,27.92
2019-04-01T07:01:30.487Z,28.62
2019-04-01T07:02:30.484Z,28.12
2019-04-01T07:03:30.455Z,28.52
2019-04-01T07:04:30.447Z,28.52
2019-04-01T07:05:30.432Z,28.62
2019-04-01T07:06:30.429Z,28.52
2019-04-01T07:07:30.434Z,28.42
2019-04-01T07:08:30.413Z,28.22
2019-04-01T07:09:30.388Z,28.01
2019-04-01T07:10:30.374Z,28.01
2019-04-01T07:11:30.431Z,28.11
2019-04-01T07:12:30.353Z,28.51
2019-04-01T07:13:30.349Z,28.41
2019-04-01T07:14:30.345Z,28.31
2019-04-01T07:15:30.320Z,28.41
2019-04-01T07:16:30.316Z,28.51
2019-04-01T07:17:30.299Z,28.69
2019-04-01T07:18:30.285Z,28.30
2019-04-01T07:19:30.277Z,28.69
2019-04-01T07:20:30.276Z,28.69
2019-04-01T07:21:30.262Z,27.70
2019-04-01T07:22:30.256Z,27.41
2019-04-01T07:23:30.296Z,27.51
2019-04-01T07:24:30.223Z,28.09
2019-04-01T07:25:33.826Z,28.00
2019-04-01T07:26:30.203Z,28.50
2019-04-01T07:27:30.194Z,28.19
2019-04-01T07:28:30.185Z,28.19
2019-04-01T07:29:30.180Z,28.30
2019-04-01T07:30:30.153Z,28.39
2019-04-01T07:31:30.140Z,28.59
2019-04-01T07:32:30.173Z,28.69
2019-04-01T07:33:30.157Z,28.39
2019-04-01T07:34:30.145Z,28.58
2019-04-01T07:35:30.118Z,28.69
2019-04-01T07:36:30.085Z,28.50
2019-04-01T07:37:30.080Z,28.39
2019-04-01T07:38:30.067Z,28.50
2019-04-01T07:39:30.053Z,28.39
2019-04-01T07:40:30.048Z,28.58
2019-04-01T07:41:30.049Z,27.88
2019-04-01T07:42:30.035Z,27.88
2019-04-01T07:43:30.008Z,27.28
2019-04-01T07:44:30.098Z,27.58
2019-04-01T07:45:29.984Z,28.28
2019-04-01T07:46:29.978Z,28.48
2019-04-01T07:47:29.984Z,28.58
2019-04-01T07:48:29.960Z,28.58
2019-04-01T07:49:29.937Z,27.98
2019-04-01T07:50:30.020Z,27.98
2019-04-01T07:51:29.916Z,27.98
2019-04-01T07:52:29.934Z,28.08
2019-04-01T07:53:29.893Z,27.98
2019-04-01T07:54:29.882Z,28.28
2019-04-01T07:55:29.878Z,27.87
2019-04-01T07:56:29.861Z,28.38
2019-04-01T07:57:32.606Z,28.17
2019-04-01T07:58:29.849Z,28.47
2019-04-01T07:59:29.825Z,28.07
2019-04-01T08:00:29.816Z,28.38
2019-04-01T08:01:29.803Z,28.47
2019-04-01T08:02:29.800Z,28.27
2019-04-01T08:03:29.783Z,28.27
2019-04-01T08:04:29.776Z,28.47
2019-04-01T08:05:29.776Z,28.47
2019-04-01T08:06:29.760Z,28.18
2019-04-01T08:07:29.753Z,28.27
2019-04-01T08:08:29.736Z,28.07
2019-04-01T08:09:29.712Z,27.47
2019-04-01T08:10:29.724Z,27.57
2019-04-01T08:11:29.716Z,28.57
2019-04-01T08:12:29.719Z,28.67
2019-04-01T08:13:29.690Z,27.97
2019-04-01T08:14:29.711Z,28.77
2019-04-01T08:15:29.643Z,27.97
2019-04-01T08:16:29.641Z,27.97
2019-04-01T08:17:29.626Z,27.07
2019-04-01T08:18:29.635Z,27.97
2019-04-01T08:19:29.654Z,27.67
2019-04-01T08:20:29.588Z,27.27
2019-04-01T08:21:29.576Z,27.47
2019-04-01T08:22:29.563Z,27.37
2019-04-01T08:23:29.587Z,27.77
2019-04-01T08:24:29.610Z,28.17
2019-04-01T08:25:29.536Z,27.47
2019-04-01T08:26:29.519Z,27.27
2019-04-01T08:27:29.508Z,27.27
2019-04-01T08:28:29.500Z,27.45
2019-04-01T08:29:30.776Z,27.27
2019-04-01T08:30:29.479Z,27.45
2019-04-01T08:31:29.481Z,27.95
2019-04-01T08:32:29.460Z,27.86
2019-04-01T08:33:29.467Z,27.45
2019-04-01T08:34:29.440Z,27.97
2019-04-01T08:35:29.462Z,27.77
2019-04-01T08:36:29.422Z,27.66
2019-04-01T08:37:29.410Z,27.86
2019-04-01T08:38:29.419Z,27.45
2019-04-01T08:39:29.404Z,27.36
2019-04-01T08:40:29.381Z,27.56
2019-04-01T08:41:29.360Z,27.56
2019-04-01T08:42:29.345Z,27.56
2019-04-01T08:43:29.358Z,27.86
2019-04-01T08:44:29.326Z,27.36
2019-04-01T08:45:29.392Z,27.66
2019-04-01T08:46:29.295Z,26.56
2019-04-01T08:47:29.281Z,27.66
2019-04-01T08:48:29.298Z,27.36
2019-04-01T08:49:29.262Z,27.56
2019-04-01T08:50:29.254Z,27.86
2019-04-01T08:51:29.240Z,27.26
2019-04-01T08:52:29.228Z,27.26
2019-04-01T08:53:29.250Z,26.56
2019-04-01T08:54:29.229Z,26.35
2019-04-01T08:55:29.219Z,26.76
2019-04-01T08:56:29.184Z,27.04
2019-04-01T08:57:29.181Z,26.76
2019-04-01T08:58:29.166Z,27.26
2019-04-01T08:59:29.151Z,26.86
2019-04-01T09:00:29.135Z,27.24
2019-04-01T09:01:35.356Z,26.96
2019-04-01T09:02:30.112Z,27.36
2019-04-01T09:03:29.110Z,27.15
2019-04-01T09:04:29.089Z,26.76
2019-04-01T09:05:29.081Z,27.26
2019-04-01T09:06:31.309Z,26.96
2019-04-01T09:07:29.148Z,27.34
2019-04-01T09:08:29.056Z,27.14
2019-04-01T09:09:29.033Z,26.46
2019-04-01T09:10:29.021Z,26.75
2019-04-01T09:11:29.011Z,26.96
2019-04-01T09:12:29.000Z,26.86
2019-04-01T09:13:29.010Z,27.24
2019-04-01T09:14:28.988Z,27.24
2019-04-01T09:15:28.974Z,26.84
2019-04-01T09:16:28.960Z,27.24
2019-04-01T09:17:28.945Z,26.84
2019-04-01T09:18:28.961Z,27.34
2019-04-01T09:19:28.924Z,26.94
2019-04-01T09:20:28.907Z,26.84
2019-04-01T09:21:28.913Z,26.75
2019-04-01T09:22:28.907Z,27.14
2019-04-01T09:23:28.890Z,27.14
2019-04-01T09:24:28.888Z,26.25
2019-04-01T09:25:28.877Z,27.04
2019-04-01T09:26:28.839Z,27.04
2019-04-01T09:27:28.828Z,27.24
2019-04-01T09:28:28.839Z,26.84
2019-04-01T09:29:28.836Z,27.14
2019-04-01T09:30:28.793Z,26.94
2019-04-01T09:31:28.785Z,27.04
2019-04-01T09:32:28.773Z,26.94
2019-04-01T09:33:28.761Z,27.24
2019-04-01T09:34:28.755Z,27.04
2019-04-01T09:35:28.740Z,27.14
2019-04-01T09:36:28.738Z,27.24
2019-04-01T09:37:28.721Z,27.24
2019-04-01T09:38:28.723Z,27.24
2019-04-01T09:39:28.701Z,27.24
2019-04-01T09:40:28.694Z,27.04
2019-04-01T09:41:28.678Z,26.94
2019-04-01T09:42:28.674Z,27.14
2019-04-01T09:43:28.659Z,27.23
2019-04-01T09:44:36.673Z,27.23
2019-04-01T09:45:29.634Z,26.84
2019-04-01T09:46:28.629Z,27.24
2019-04-01T09:47:28.612Z,27.33
2019-04-01T09:48:28.621Z,27.13
2019-04-01T09:49:28.583Z,27.74
2019-04-01T09:50:28.589Z,27.13
2019-04-01T09:51:28.557Z,27.13
2019-04-01T09:52:28.554Z,27.23
2019-04-01T09:53:28.540Z,27.13
2019-04-01T09:54:28.532Z,27.13
2019-04-01T09:55:28.520Z,27.03
2019-04-01T09:56:28.514Z,27.63
2019-04-01T09:57:28.577Z,27.83
2019-04-01T09:58:28.483Z,27.83
2019-04-01T09:59:28.524Z,27.73
2019-04-01T10:00:28.467Z,27.73
2019-04-01T10:01:28.441Z,27.83
2019-04-01T10:02:32.143Z,27.33
2019-04-01T10:03:28.422Z,27.33
2019-04-01T10:04:28.443Z,27.33
2019-04-01T10:05:28.554Z,27.33
2019-04-01T10:06:28.384Z,27.63
2019-04-01T10:07:28.420Z,27.43
2019-04-01T10:08:41.402Z,27.43
2019-04-01T10:09:29.355Z,27.63
2019-04-01T10:10:28.346Z,27.33
2019-04-01T10:11:28.344Z,27.53
2019-04-01T10:12:28.428Z,27.93
2019-04-01T10:13:28.322Z,28.03
2019-04-01T10:14:28.318Z,27.83
2019-04-01T10:15:28.284Z,27.43
2019-04-01T10:16:28.299Z,27.83
2019-04-01T10:17:28.258Z,28.03
2019-04-01T10:18:28.246Z,27.63
2019-04-01T10:19:28.244Z,27.83
2019-04-01T10:20:28.231Z,27.63
2019-04-01T10:21:28.222Z,27.83
2019-04-01T10:22:28.200Z,27.73
2019-04-01T10:23:28.189Z,27.63
2019-04-01T10:24:28.176Z,28.12
2019-04-01T10:25:28.194Z,27.73
2019-04-01T10:26:28.163Z,27.83
2019-04-01T10:27:28.154Z,27.43
2019-04-01T10:28:28.161Z,27.53
2019-04-01T10:29:28.119Z,28.03
2019-04-01T10:30:28.137Z,28.11
2019-04-01T10:31:28.136Z,27.43
2019-04-01T10:32:28.091Z,27.42
2019-04-01T10:33:28.097Z,27.81
2019-04-01T10:34:28.074Z,27.33
2019-04-01T10:35:28.062Z,28.02
2019-04-01T10:36:28.052Z,28.02
2019-04-01T10:37:28.030Z,27.42
2019-04-01T10:38:28.016Z,27.32
2019-04-01T10:39:28.033Z,27.42
2019-04-01T10:40:28.004Z,27.62
2019-04-01T10:41:27.995Z,27.43
2019-04-01T10:42:27.975Z,27.42
2019-04-01T10:43:27.969Z,27.33
2019-04-01T10:44:27.948Z,28.02
2019-04-01T10:45:28.009Z,27.73
2019-04-01T10:46:27.927Z,28.02
2019-04-01T10:47:27.924Z,27.81
2019-04-01T10:48:27.995Z,27.72
2019-04-01T10:49:28.076Z,27.62
2019-04-01T10:50:27.922Z,27.42
2019-04-01T10:51:27.986Z,27.81
2019-04-01T10:52:27.900Z,27.22
2019-04-01T10:53:28.004Z,27.81
2019-04-01T10:54:27.854Z,28.22
2019-04-01T10:55:27.935Z,27.51
2019-04-01T10:56:27.927Z,27.81
2019-04-01T10:57:27.826Z,27.22
2019-04-01T10:58:27.857Z,27.12
2019-04-01T10:59:27.880Z,27.32
2019-04-01T11:00:27.805Z,27.22
2019-04-01T11:01:27.815Z,26.32
2019-04-01T11:02:27.775Z,27.22
2019-04-01T11:03:27.778Z,27.22
2019-04-01T11:04:27.862Z,27.22
2019-04-01T11:05:27.764Z,26.92
2019-04-01T11:06:27.775Z,26.92
2019-04-01T11:07:27.771Z,27.51
2019-04-01T11:08:27.699Z,27.42
2019-04-01T11:09:38.246Z,27.23
2019-04-01T11:10:28.681Z,27.12
2019-04-01T11:11:27.656Z,27.12
2019-04-01T11:12:27.634Z,27.22
2019-04-01T11:13:27.625Z,27.23
2019-04-01T11:14:27.607Z,27.02
2019-04-01T11:15:27.610Z,27.72
2019-04-01T11:16:31.445Z,27.51
2019-04-01T11:17:27.586Z,27.62
2019-04-01T11:18:27.575Z,27.02
2019-04-01T11:19:27.552Z,27.43
2019-04-01T11:20:27.540Z,27.03
2019-04-01T11:21:27.538Z,27.73
2019-04-01T11:22:27.537Z,27.73
2019-04-01T11:23:27.520Z,27.33
2019-04-01T11:24:27.495Z,27.23
2019-04-01T11:25:27.490Z,27.33
2019-04-01T11:26:27.478Z,27.43
2019-04-01T11:27:27.467Z,27.53
2019-04-01T11:28:27.546Z,27.63
2019-04-01T11:29:27.452Z,27.13
2019-04-01T11:30:27.509Z,27.63
2019-04-01T11:31:27.515Z,27.53
2019-04-01T11:32:27.450Z,27.23
2019-04-01T11:33:27.435Z,26.33
2019-04-01T11:34:27.433Z,26.23
2019-04-01T11:35:27.403Z,27.23
2019-04-01T11:36:27.422Z,27.23
2019-04-01T11:37:27.363Z,27.13
2019-04-01T11:38:27.384Z,27.13
2019-04-01T11:39:27.387Z,27.03
2019-04-01T11:40:27.383Z,27.63
2019-04-01T11:41:34.933Z,27.23
2019-04-01T11:42:27.318Z,27.43
2019-04-01T11:43:27.302Z,27.23
2019-04-01T11:44:27.333Z,26.63
2019-04-01T11:45:27.296Z,27.03
2019-04-01T11:46:27.276Z,26.73
2019-04-01T11:47:27.308Z,26.73
2019-04-01T11:48:27.267Z,27.03
2019-04-01T11:49:28.465Z,26.73
2019-04-01T11:50:27.251Z,26.33
2019-04-01T11:51:33.092Z,27.03
2019-04-01T11:52:28.251Z,26.83
2019-04-01T11:53:27.169Z,26.93
2019-04-01T11:54:27.176Z,27.13
2019-04-01T11:55:27.154Z,27.03
2019-04-01T11:56:27.152Z,27.23
2019-04-01T11:57:27.130Z,26.93
2019-04-01T11:58:27.115Z,26.63
2019-04-01T11:59:27.369Z,27.23
2019-04-01T12:00:27.119Z,27.13
2019-04-01T12:01:27.110Z,27.73
2019-04-01T12:02:27.081Z,27.43
2019-04-01T12:03:27.060Z,27.43
2019-04-01T12:04:27.056Z,27.23
2019-04-01T12:05:27.038Z,27.03
2019-04-01T12:06:27.032Z,27.12
2019-04-01T12:07:27.071Z,27.23
2019-04-01T12:08:27.045Z,27.23
2019-04-01T12:09:27.768Z,26.83
2019-04-01T12:10:26.984Z,26.63
2019-04-01T12:11:26.988Z,27.02
2019-04-01T12:12:26.953Z,27.13
2019-04-01T12:13:27.109Z,26.92
2019-04-01T12:14:27.119Z,26.73
2019-04-01T12:15:26.920Z,27.02
2019-04-01T12:16:26.968Z,26.72
2019-04-01T12:17:26.938Z,26.72
2019-04-01T12:18:26.889Z,27.22
2019-04-01T12:19:26.959Z,27.23
2019-04-01T12:20:26.862Z,27.23
2019-04-01T12:21:26.875Z,26.73
2019-04-01T12:22:26.856Z,27.22
2019-04-01T12:23:26.841Z,26.72
2019-04-01T12:24:26.881Z,26.72
2019-04-01T12:25:26.804Z,26.82
2019-04-01T12:26:26.793Z,27.02
2019-04-01T12:27:26.969Z,27.32
2019-04-01T12:28:26.780Z,27.12
2019-04-01T12:29:26.803Z,26.72
2019-04-01T12:30:26.748Z,27.22
2019-04-01T12:31:26.749Z,27.32
2019-04-01T12:32:26.747Z,26.92
2019-04-01T12:33:26.796Z,27.22
2019-04-01T12:34:26.711Z,27.22
2019-04-01T12:35:26.694Z,26.72
2019-04-01T12:36:27.593Z,27.12
2019-04-01T12:37:29.922Z,27.12
2019-04-01T12:38:26.672Z,27.42
2019-04-01T12:39:26.671Z,27.32
2019-04-01T12:40:26.635Z,27.72
2019-04-01T12:41:26.636Z,27.42
2019-04-01T12:42:26.622Z,27.12
2019-04-01T12:43:26.600Z,27.02
2019-04-01T12:44:26.585Z,27.62
2019-04-01T12:45:26.642Z,27.32
2019-04-01T12:46:26.645Z,27.60
2019-04-01T12:47:26.576Z,27.51
2019-04-01T12:48:26.685Z,27.32
2019-04-01T12:49:26.580Z,27.51
2019-04-01T12:50:26.547Z,27.50
2019-04-01T12:51:26.526Z,27.80
2019-04-01T12:52:26.502Z,27.30